Time;durP1;ratioP1;P1;durP2;ratioP2;P2;SDS_P1;SDS_P2;PMS_P1;PMS_P2;Temp;Humidity;BMP_temperature;BMP_pressure;BME280_temperature;BME280_humidity;BME280_pressure;Samples;Min_cycle;Max_cycle;Signal;HPM_P1;HPM_P2
2021/03/14 00:00:07;;;;;;;0.60;0.33;;;6.80;99.90;;;;;;5118054;28;20231;-59
2021/03/14 00:02:33;;;;;;;1.13;0.50;;;6.80;99.90;;;;;;5118600;28;20211;-58
2021/03/14 00:05:00;;;;;;;2.00;0.50;;;6.80;99.90;;;;;;5117974;28;20200;-59
2021/03/14 00:07:27;;;;;;;1.37;0.67;;;6.80;99.90;;;;;;5118121;28;20603;-59
2021/03/14 00:09:53;;;;;;;1.43;0.50;;;6.90;99.90;;;;;;5117702;28;20223;-58
2021/03/14 00:12:20;;;;;;;1.87;0.40;;;6.80;99.90;;;;;;5118329;28;20555;-58
2021/03/14 00:14:46;;;;;;;1.90;0.57;;;6.90;99.90;;;;;;5117939;28;20203;-59
2021/03/14 00:17:13;;;;;;;1.60;0.40;;;7.00;99.90;;;;;;5118220;28;20199;-59
2021/03/14 00:19:39;;;;;;;1.17;0.40;;;7.10;99.90;;;;;;5117754;28;21570;-58
2021/03/14 00:22:05;;;;;;;1.43;0.40;;;6.90;99.90;;;;;;5118512;28;20570;-58
2021/03/14 00:24:32;;;;;;;1.93;0.73;;;6.90;99.90;;;;;;5117712;28;20218;-58
2021/03/14 00:26:58;;;;;;;0.30;0.30;;;6.90;99.90;;;;;;5118074;28;20223;-59
2021/03/14 00:29:24;;;;;;;0.97;0.30;;;6.90;99.90;;;;;;5117633;28;20200;-58
2021/03/14 00:31:51;;;;;;;2.27;0.37;;;6.90;99.90;;;;;;5117824;28;20547;-59
2021/03/14 00:34:17;;;;;;;0.97;0.30;;;7.10;99.90;;;;;;5117628;28;20209;-58
2021/03/14 00:36:43;;;;;;;0.97;0.40;;;7.00;99.90;;;;;;5118094;28;20202;-58
2021/03/14 00:39:09;;;;;;;1.73;0.50;;;7.00;99.90;;;;;;5117953;28;20211;-59
2021/03/14 00:41:36;;;;;;;0.87;0.30;;;6.90;99.90;;;;;;5118124;28;20223;-59
2021/03/14 00:44:03;;;;;;;1.00;0.50;;;6.90;99.90;;;;;;5117841;28;20208;-59
2021/03/14 00:46:30;;;;;;;1.20;0.60;;;6.90;99.90;;;;;;5117798;28;20272;-58
2021/03/14 00:48:56;;;;;;;0.40;0.27;;;6.90;99.90;;;;;;5117321;28;20207;-59
2021/03/14 00:51:23;;;;;;;1.07;0.50;;;6.90;99.90;;;;;;5117408;28;20228;-59
2021/03/14 00:53:49;;;;;;;1.10;0.50;;;6.90;99.90;;;;;;5117329;28;20678;-59
2021/03/14 00:56:15;;;;;;;2.27;0.40;;;6.80;99.90;;;;;;5117505;28;20232;-59
2021/03/14 00:58:42;;;;;;;1.50;0.40;;;6.80;99.90;;;;;;5117417;28;20207;-58
2021/03/14 01:01:08;;;;;;;1.20;0.50;;;6.70;99.90;;;;;;5117265;28;20745;-59
2021/03/14 01:03:35;;;;;;;1.77;0.30;;;6.60;99.90;;;;;;5117462;28;20203;-59
2021/03/14 01:06:01;;;;;;;2.23;0.50;;;6.50;99.90;;;;;;5116101;28;20224;-59
2021/03/14 01:08:27;;;;;;;0.50;0.40;;;6.50;99.90;;;;;;5113932;28;20215;-58
2021/03/14 01:10:55;;;;;;;1.93;0.77;;;6.50;99.90;;;;;;5114339;28;20220;-59
2021/03/14 01:13:21;;;;;;;3.47;1.37;;;6.50;99.90;;;;;;5114598;28;20206;-59
2021/03/14 01:15:48;;;;;;;0.63;0.37;;;6.50;99.90;;;;;;5114259;28;20207;-59
2021/03/14 01:18:14;;;;;;;1.80;0.30;;;6.60;99.90;;;;;;5114155;28;20219;-59
2021/03/14 01:20:40;;;;;;;0.93;0.30;;;6.60;99.90;;;;;;5113862;28;20232;-59
2021/03/14 01:23:06;;;;;;;1.67;0.27;;;6.50;99.90;;;;;;5114249;28;20207;-59
2021/03/14 01:25:33;;;;;;;0.73;0.40;;;6.40;99.90;;;;;;5113888;28;20678;-59
2021/03/14 01:27:59;;;;;;;1.17;0.33;;;6.50;99.90;;;;;;5114110;28;20210;-59
2021/03/14 01:30:25;;;;;;;1.70;0.40;;;6.50;99.90;;;;;;5114155;28;20734;-59
2021/03/14 01:32:52;;;;;;;0.80;0.30;;;6.30;99.90;;;;;;5114025;28;20203;-59
2021/03/14 01:35:19;;;;;;;0.27;0.20;;;6.30;99.90;;;;;;5113750;28;20557;-58
2021/03/14 01:37:46;;;;;;;0.90;0.47;;;6.40;99.90;;;;;;5113775;28;20659;-59
2021/03/14 01:40:15;;;;;;;0.67;0.30;;;6.50;99.90;;;;;;5113845;28;20231;-59
2021/03/14 01:42:41;;;;;;;0.40;0.20;;;6.50;99.90;;;;;;5113558;28;20694;-59
2021/03/14 01:45:08;;;;;;;0.30;0.20;;;6.40;99.90;;;;;;5113628;28;20212;-59
2021/03/14 01:47:37;;;;;;;0.50;0.30;;;6.40;99.90;;;;;;5113164;28;20229;-58
2021/03/14 01:50:07;;;;;;;0.47;0.40;;;6.40;99.90;;;;;;5113389;28;20288;-58
2021/03/14 01:52:34;;;;;;;0.40;0.30;;;6.40;99.90;;;;;;5113578;28;20199;-59
2021/03/14 01:55:00;;;;;;;1.00;0.33;;;6.40;99.90;;;;;;5113290;28;20203;-59
2021/03/14 01:57:27;;;;;;;0.20;0.20;;;6.50;99.90;;;;;;5113560;28;20200;-58
2021/03/14 01:59:53;;;;;;;0.60;0.60;;;6.50;99.90;;;;;;5113155;28;20259;-59
2021/03/14 02:02:19;;;;;;;1.13;0.30;;;6.50;99.90;;;;;;5113109;28;20596;-58
2021/03/14 02:04:45;;;;;;;0.63;0.40;;;6.50;99.90;;;;;;5113359;28;20207;-58
2021/03/14 02:07:14;;;;;;;0.93;0.43;;;6.50;99.90;;;;;;5113217;28;20226;-58
2021/03/14 02:09:40;;;;;;;1.13;0.40;;;6.50;99.90;;;;;;5113003;28;20238;-58
2021/03/14 02:12:09;;;;;;;0.30;0.30;;;6.40;99.90;;;;;;5113383;28;20212;-57
2021/03/14 02:14:38;;;;;;;0.30;0.30;;;6.20;99.90;;;;;;5113019;28;20698;-58
2021/03/14 02:17:07;;;;;;;0.80;0.33;;;6.20;99.90;;;;;;5112962;28;20225;-58
2021/03/14 02:19:37;;;;;;;0.70;0.20;;;6.20;99.90;;;;;;5112447;28;20211;-58
2021/03/14 02:22:04;;;;;;;0.73;0.30;;;6.30;99.90;;;;;;5112914;28;20706;-58
2021/03/14 02:24:37;;;;;;;0.47;0.30;;;6.20;99.90;;;;;;5112836;28;20215;-58
2021/03/14 02:27:06;;;;;;;0.53;0.40;;;6.20;99.90;;;;;;5112748;28;20722;-58
2021/03/14 02:29:35;;;;;;;1.10;0.40;;;6.30;99.90;;;;;;5112468;28;20203;-59
2021/03/14 02:32:05;;;;;;;0.90;0.50;;;6.30;99.90;;;;;;5112737;28;20206;-58
2021/03/14 02:34:34;;;;;;;1.20;0.60;;;6.20;99.90;;;;;;5112726;28;20203;-58
2021/03/14 02:37:03;;;;;;;0.60;0.37;;;6.20;99.90;;;;;;5112847;28;20203;-59
2021/03/14 02:39:29;;;;;;;1.30;0.40;;;6.20;99.90;;;;;;5112420;28;20289;-58
2021/03/14 02:41:58;;;;;;;0.30;0.30;;;6.00;99.90;;;;;;5112412;28;20215;-59
2021/03/14 02:44:29;;;;;;;1.50;0.37;;;6.00;99.90;;;;;;5112596;28;20212;-58
2021/03/14 02:46:55;;;;;;;0.83;0.43;;;5.90;99.90;;;;;;5112726;28;20250;-59
2021/03/14 02:49:22;;;;;;;1.10;0.33;;;5.90;99.90;;;;;;5112453;28;20199;-58
2021/03/14 02:51:49;;;;;;;0.87;0.60;;;5.80;99.90;;;;;;5112559;28;20211;-58
2021/03/14 02:54:17;;;;;;;1.07;0.50;;;5.80;99.90;;;;;;5112052;28;20249;-58
2021/03/14 02:56:45;;;;;;;1.40;0.70;;;5.90;99.90;;;;;;5112375;28;20210;-59
2021/03/14 02:59:14;;;;;;;0.97;0.50;;;5.90;99.90;;;;;;5112283;28;20231;-59
2021/03/14 03:01:45;;;;;;;1.20;0.60;;;5.90;99.90;;;;;;5100744;22;20286;-62
2021/03/14 03:04:12;;;;;;;1.60;0.80;;;5.90;99.90;;;;;;5073654;28;20205;-60
2021/03/14 03:06:39;;;;;;;2.83;0.53;;;6.00;99.90;;;;;;5073433;28;20233;-59
2021/03/14 03:09:07;;;;;;;1.70;0.77;;;6.00;99.90;;;;;;5073218;28;20201;-60
2021/03/14 03:11:33;;;;;;;1.37;0.80;;;5.90;99.90;;;;;;5072626;28;20224;-60
2021/03/14 03:14:00;;;;;;;1.17;0.80;;;6.00;99.90;;;;;;5072426;28;20676;-60
2021/03/14 03:16:27;;;;;;;1.87;0.93;;;5.90;99.90;;;;;;5072549;28;20211;-59
2021/03/14 03:18:54;;;;;;;1.53;0.80;;;6.00;99.90;;;;;;5072267;28;20204;-60
2021/03/14 03:21:22;;;;;;;0.83;0.77;;;6.10;99.90;;;;;;5072336;28;20271;-61
2021/03/14 03:23:49;;;;;;;3.47;1.50;;;6.10;99.90;;;;;;5072104;28;20691;-60
2021/03/14 03:26:16;;;;;;;2.40;0.80;;;6.10;99.90;;;;;;5072378;28;20221;-61
2021/03/14 03:28:42;;;;;;;1.40;0.90;;;6.10;99.90;;;;;;5072101;28;20220;-61
2021/03/14 03:31:09;;;;;;;1.43;1.00;;;6.20;99.90;;;;;;5071340;28;20227;-61
2021/03/14 03:33:35;;;;;;;4.13;1.60;;;6.20;99.90;;;;;;5072141;28;20672;-62
2021/03/14 03:36:04;;;;;;;2.53;1.13;;;6.00;99.90;;;;;;5072274;28;20204;-59
2021/03/14 03:38:32;;;;;;;2.07;1.40;;;5.90;99.90;;;;;;5072626;28;20205;-60
2021/03/14 03:40:58;;;;;;;2.90;1.30;;;5.90;99.90;;;;;;5072558;28;20229;-61
2021/03/14 03:43:28;;;;;;;1.70;0.93;;;5.90;99.90;;;;;;5072260;28;20621;-62
2021/03/14 03:45:56;;;;;;;2.10;1.07;;;5.80;99.90;;;;;;5071975;28;20208;-61
2021/03/14 03:48:39;;;;;;;2.00;0.90;;;5.70;99.90;;;;;;5072162;28;20209;-62
2021/03/14 03:51:07;;;;;;;1.63;1.07;;;5.60;99.90;;;;;;5072306;28;20225;-63
2021/03/14 03:53:34;;;;;;;1.63;0.80;;;5.80;99.90;;;;;;5071947;28;20209;-61
2021/03/14 03:56:02;;;;;;;2.00;0.90;;;5.70;99.90;;;;;;5072220;28;20205;-59
2021/03/14 03:58:31;;;;;;;2.80;1.23;;;5.80;99.90;;;;;;5071443;28;20216;-61
2021/03/14 04:00:59;;;;;;;1.57;1.00;;;5.80;99.90;;;;;;5071963;28;20438;-60
2021/03/14 04:03:25;;;;;;;0.80;0.80;;;5.90;99.90;;;;;;5072357;28;20276;-61
2021/03/14 04:05:57;;;;;;;1.70;1.20;;;5.80;99.90;;;;;;5072723;28;20261;-60
2021/03/14 04:08:26;;;;;;;1.10;0.80;;;5.80;99.90;;;;;;5072532;28;20212;-61
2021/03/14 04:10:53;;;;;;;1.17;1.00;;;5.80;99.90;;;;;;5072801;28;20227;-61
2021/03/14 04:13:21;;;;;;;2.40;1.23;;;5.80;99.90;;;;;;5072593;28;20672;-61
2021/03/14 04:15:47;;;;;;;4.40;1.13;;;5.80;99.90;;;;;;5071907;28;20257;-61
2021/03/14 04:18:15;;;;;;;1.20;1.10;;;5.70;99.90;;;;;;5072091;28;20219;-62
2021/03/14 04:20:42;;;;;;;2.03;1.13;;;5.60;99.90;;;;;;5071164;28;20226;-61
2021/03/14 04:23:13;;;;;;;2.10;1.20;;;5.60;99.90;;;;;;5071192;28;20220;-65
2021/03/14 04:25:42;;;;;;;2.83;1.20;;;5.50;99.90;;;;;;5070778;28;20703;-62
2021/03/14 04:28:09;;;;;;;1.43;0.97;;;5.50;99.90;;;;;;5070715;28;20205;-61
2021/03/14 04:30:35;;;;;;;1.67;1.30;;;5.60;99.90;;;;;;5070889;28;20716;-61
2021/03/14 04:33:02;;;;;;;2.27;1.10;;;5.70;99.90;;;;;;5070922;28;20205;-61
2021/03/14 04:35:29;;;;;;;2.17;1.07;;;5.50;99.90;;;;;;5070742;28;20231;-61
2021/03/14 04:37:56;;;;;;;1.27;1.10;;;5.50;99.90;;;;;;5070688;28;20204;-61
2021/03/14 04:40:23;;;;;;;2.47;0.97;;;5.70;99.90;;;;;;5070682;28;20250;-62
2021/03/14 04:42:52;;;;;;;2.27;1.10;;;5.70;99.90;;;;;;5074302;28;20205;-60
2021/03/14 04:45:19;;;;;;;1.53;0.90;;;5.60;99.90;;;;;;5074337;28;20201;-61
2021/03/14 04:47:47;;;;;;;2.20;0.93;;;5.70;99.90;;;;;;5074350;28;20271;-60
2021/03/14 04:50:15;;;;;;;1.10;1.00;;;5.80;99.90;;;;;;5074467;28;20299;-61
2021/03/14 04:52:44;;;;;;;1.87;1.00;;;5.90;99.90;;;;;;5074162;28;20675;-61
2021/03/14 04:55:13;;;;;;;1.00;0.83;;;5.90;99.90;;;;;;5073929;28;20204;-61
2021/03/14 04:57:41;;;;;;;1.33;1.00;;;5.90;99.90;;;;;;5074370;28;20200;-61
2021/03/14 05:00:10;;;;;;;1.33;0.93;;;6.00;99.90;;;;;;5074012;28;20712;-62
2021/03/14 05:02:38;;;;;;;2.70;0.80;;;6.00;99.90;;;;;;5074241;28;20270;-62
2021/03/14 05:05:06;;;;;;;0.80;0.80;;;6.10;99.90;;;;;;5074422;28;20606;-61
2021/03/14 05:07:35;;;;;;;1.07;0.87;;;6.10;99.90;;;;;;5074445;28;20232;-61
2021/03/14 05:10:02;;;;;;;0.87;0.70;;;6.10;99.90;;;;;;5074416;28;20229;-61
2021/03/14 05:12:28;;;;;;;0.57;0.53;;;6.20;99.90;;;;;;5074180;28;20213;-62
2021/03/14 05:14:55;;;;;;;0.70;0.60;;;6.30;99.90;;;;;;5074070;28;20204;-61
2021/03/14 05:17:23;;;;;;;2.17;0.90;;;6.20;99.90;;;;;;5074619;28;20201;-61
2021/03/14 05:19:50;;;;;;;1.00;0.77;;;6.20;99.90;;;;;;5074174;28;20664;-61
2021/03/14 05:22:19;;;;;;;2.03;1.10;;;6.20;99.90;;;;;;5074683;28;20628;-60
2021/03/14 05:24:47;;;;;;;2.87;1.07;;;6.10;99.90;;;;;;5074620;28;20236;-62
2021/03/14 05:27:14;;;;;;;1.80;1.00;;;6.10;99.90;;;;;;5074833;28;20229;-62
2021/03/14 05:29:40;;;;;;;3.30;1.20;;;6.20;99.90;;;;;;5074767;28;20215;-62
2021/03/14 05:32:07;;;;;;;6.10;1.30;;;6.20;99.90;;;;;;5074674;28;20578;-61
2021/03/14 05:34:34;;;;;;;2.30;1.00;;;6.20;99.90;;;;;;5074348;28;20239;-62
2021/03/14 05:37:00;;;;;;;2.37;1.30;;;6.30;99.90;;;;;;5074204;28;20200;-60
2021/03/14 05:39:27;;;;;;;1.87;0.87;;;6.20;99.90;;;;;;5073988;28;20209;-62
2021/03/14 05:41:54;;;;;;;1.83;1.00;;;6.20;99.90;;;;;;5073787;28;20225;-61
2021/03/14 05:44:21;;;;;;;2.17;1.20;;;6.20;99.90;;;;;;5073440;28;20220;-61
2021/03/14 05:46:47;;;;;;;2.67;1.07;;;6.10;99.90;;;;;;5073384;28;20601;-61
2021/03/14 05:49:14;;;;;;;4.23;1.00;;;6.10;99.90;;;;;;5073598;28;20254;-61
2021/03/14 05:51:44;;;;;;;4.37;1.47;;;6.10;99.90;;;;;;5073369;28;20602;-60
2021/03/14 05:54:15;;;;;;;3.50;1.07;;;6.20;99.90;;;;;;5072728;28;20242;-61
2021/03/14 05:56:44;;;;;;;2.20;0.90;;;6.10;99.90;;;;;;5073122;28;20255;-61
2021/03/14 05:59:12;;;;;;;1.33;1.20;;;6.20;99.90;;;;;;5073119;28;20302;-60
2021/03/14 06:01:40;;;;;;;3.50;1.00;;;6.20;99.90;;;;;;5073271;28;20327;-60
2021/03/14 06:04:09;;;;;;;1.30;0.90;;;6.30;99.90;;;;;;5074073;28;20204;-61
2021/03/14 06:06:36;;;;;;;2.60;1.30;;;6.30;99.90;;;;;;5073194;28;20224;-62
2021/03/14 06:09:04;;;;;;;5.80;1.40;;;6.20;99.90;;;;;;5073024;28;20205;-60
2021/03/14 06:11:30;;;;;;;5.57;2.47;;;6.30;99.90;;;;;;5072880;28;20229;-61
2021/03/14 06:13:57;;;;;;;2.10;0.90;;;6.30;99.90;;;;;;5072471;28;20626;-61
2021/03/14 06:16:23;;;;;;;5.20;1.80;;;6.30;99.90;;;;;;5072492;28;20201;-60
2021/03/14 06:18:51;;;;;;;2.57;1.40;;;6.30;99.90;;;;;;5072393;28;20576;-60
2021/03/14 06:21:23;;;;;;;1.73;1.00;;;6.40;99.90;;;;;;5072685;28;20232;-62
2021/03/14 06:23:57;;;;;;;1.93;0.80;;;6.50;99.90;;;;;;5072628;28;20204;-60
2021/03/14 06:26:36;;;;;;;2.43;1.10;;;6.50;99.90;;;;;;5072228;28;20216;-61
2021/03/14 06:29:22;;;;;;;3.27;1.27;;;6.50;99.90;;;;;;5072045;28;20207;-61
2021/03/14 06:31:51;;;;;;;3.13;1.00;;;6.50;99.90;;;;;;5072339;28;20232;-62
2021/03/14 06:34:25;;;;;;;3.33;1.27;;;6.40;99.90;;;;;;5072551;28;20205;-62
2021/03/14 06:36:51;;;;;;;3.70;1.40;;;6.50;99.90;;;;;;5072303;28;20207;-62
2021/03/14 06:39:22;;;;;;;4.67;1.50;;;6.60;99.90;;;;;;5072025;28;20209;-62
2021/03/14 06:41:49;;;;;;;4.17;1.60;;;6.70;99.90;;;;;;5072188;28;21327;-61
2021/03/14 06:44:22;;;;;;;4.33;1.00;;;6.70;99.90;;;;;;5072432;28;20295;-62
2021/03/14 06:46:48;;;;;;;3.87;1.10;;;6.80;99.90;;;;;;5072072;28;20221;-63
2021/03/14 06:49:17;;;;;;;1.80;1.13;;;6.80;99.90;;;;;;5072190;28;20217;-61
2021/03/14 06:51:45;;;;;;;5.73;1.50;;;6.70;99.90;;;;;;5072236;28;20225;-61
2021/03/14 06:54:23;;;;;;;2.93;1.40;;;6.70;99.90;;;;;;5072618;28;20240;-61
2021/03/14 06:57:15;;;;;;;3.60;1.53;;;6.50;99.90;;;;;;5072398;28;20205;-61
2021/03/14 06:59:43;;;;;;;4.47;1.33;;;6.50;99.90;;;;;;5072499;28;20278;-62
2021/03/14 07:02:11;;;;;;;2.17;1.10;;;6.60;99.90;;;;;;5072232;28;20193;-61
2021/03/14 07:04:41;;;;;;;3.47;1.53;;;6.70;99.90;;;;;;5070894;28;20213;-61
2021/03/14 07:07:14;;;;;;;3.10;1.20;;;6.80;99.90;;;;;;5071960;28;20224;-62
2021/03/14 07:09:40;;;;;;;5.40;2.77;;;6.80;99.90;;;;;;5071881;28;20244;-62
2021/03/14 07:12:17;;;;;;;5.70;1.87;;;6.90;99.90;;;;;;5071805;28;20205;-62
2021/03/14 07:14:43;;;;;;;2.70;1.00;;;6.90;99.90;;;;;;5071758;28;20204;-62
2021/03/14 07:17:10;;;;;;;2.83;1.20;;;6.90;99.90;;;;;;5071854;28;20204;-62
2021/03/14 07:19:38;;;;;;;4.37;1.00;;;6.90;99.90;;;;;;5071769;28;20209;-62
2021/03/14 07:22:06;;;;;;;1.77;0.83;;;6.90;99.90;;;;;;5072477;28;20232;-60
2021/03/14 07:24:34;;;;;;;3.27;1.10;;;7.00;99.90;;;;;;5072297;28;20580;-61
2021/03/14 07:27:02;;;;;;;7.17;1.50;;;7.00;99.90;;;;;;5072267;28;20221;-61
2021/03/14 07:29:30;;;;;;;3.70;1.37;;;7.00;99.90;;;;;;5072181;28;20216;-61
2021/03/14 07:31:57;;;;;;;4.93;1.30;;;7.00;99.90;;;;;;5071968;28;20224;-62
2021/03/14 07:34:25;;;;;;;4.97;2.23;;;7.20;99.90;;;;;;5072311;28;20635;-62
2021/03/14 07:36:52;;;;;;;2.60;1.30;;;7.50;99.90;;;;;;5072601;28;20543;-62
2021/03/14 07:39:19;;;;;;;3.43;1.30;;;7.50;99.90;;;;;;5071754;28;20284;-62
2021/03/14 07:41:46;;;;;;;5.80;1.73;;;7.60;99.90;;;;;;5072074;28;20228;-62
2021/03/14 07:44:13;;;;;;;3.03;1.03;;;7.40;99.90;;;;;;5071591;28;20235;-62
2021/03/14 07:46:42;;;;;;;3.87;1.27;;;7.60;99.90;;;;;;5071609;28;20232;-61
2021/03/14 07:49:12;;;;;;;3.20;1.30;;;7.60;99.90;;;;;;5071809;28;20212;-62
2021/03/14 07:51:39;;;;;;;6.70;1.40;;;7.70;99.90;;;;;;5071782;28;20232;-63
2021/03/14 07:54:08;;;;;;;3.33;1.60;;;7.70;99.90;;;;;;5071187;28;20212;-61
2021/03/14 07:56:37;;;;;;;5.03;1.40;;;7.70;99.90;;;;;;5070872;28;20213;-62
2021/03/14 07:59:04;;;;;;;4.00;1.40;;;7.80;99.90;;;;;;5071576;28;20204;-61
2021/03/14 08:01:32;;;;;;;4.10;1.37;;;7.70;99.90;;;;;;5071328;28;20716;-62
2021/03/14 08:03:59;;;;;;;2.70;1.30;;;7.80;99.90;;;;;;5071670;28;20212;-62
2021/03/14 08:06:53;;;;;;;3.17;1.10;;;7.90;99.90;;;;;;5071336;28;20227;-60
2021/03/14 08:09:45;;;;;;;3.53;1.40;;;7.80;99.90;;;;;;5046253;28;20232;-61
2021/03/14 08:12:34;;;;;;;7.53;1.33;;;7.80;99.90;;;;;;5070958;28;20513;-61
2021/03/14 08:15:01;;;;;;;4.10;1.30;;;7.80;99.90;;;;;;5070900;28;20292;-64
2021/03/14 08:17:34;;;;;;;3.30;1.20;;;8.00;99.90;;;;;;5074142;28;20201;-64
2021/03/14 08:20:03;;;;;;;5.33;1.50;;;8.20;99.90;;;;;;5075144;28;20225;-63
2021/03/14 08:22:49;;;;;;;4.37;1.10;;;8.50;99.90;;;;;;5074980;28;20715;-64
2021/03/14 08:25:17;;;;;;;2.03;1.23;;;8.80;99.90;;;;;;5075385;28;20196;-64
2021/03/14 08:27:43;;;;;;;5.87;1.60;;;9.10;99.60;;;;;;5075401;28;20250;-65
2021/03/14 08:30:10;;;;;;;4.70;1.80;;;9.50;99.40;;;;;;5074983;28;20231;-64
2021/03/14 08:32:36;;;;;;;4.03;1.20;;;9.60;98.70;;;;;;5075219;28;20220;-64
2021/03/14 08:35:04;;;;;;;3.53;1.37;;;9.50;97.70;;;;;;5074346;28;20558;-64
2021/03/14 08:37:31;;;;;;;3.67;1.43;;;9.60;97.70;;;;;;5074733;28;20205;-64
2021/03/14 08:39:59;;;;;;;3.53;1.20;;;9.80;97.50;;;;;;5074563;28;20229;-63
2021/03/14 08:42:49;;;;;;;3.57;1.57;;;9.80;97.80;;;;;;5074574;28;20232;-64
2021/03/14 08:45:22;;;;;;;3.40;1.40;;;9.70;97.10;;;;;;5074793;28;20239;-64
2021/03/14 08:47:49;;;;;;;4.00;1.40;;;9.70;97.20;;;;;;5074412;28;20251;-63
2021/03/14 08:50:16;;;;;;;4.63;1.23;;;9.50;97.00;;;;;;5074370;28;20221;-63
2021/03/14 08:52:42;;;;;;;4.50;1.80;;;9.40;97.50;;;;;;5074730;28;20212;-64
2021/03/14 08:55:10;;;;;;;3.57;1.17;;;9.40;97.00;;;;;;5074547;28;20223;-64
2021/03/14 08:57:36;;;;;;;4.50;1.13;;;9.40;96.60;;;;;;5074406;28;20205;-64
2021/03/14 09:00:06;;;;;;;5.20;1.40;;;9.40;96.60;;;;;;5074710;28;20653;-64
2021/03/14 09:02:34;;;;;;;4.33;1.37;;;9.60;97.20;;;;;;5074110;28;20209;-63
2021/03/14 09:05:11;;;;;;;5.87;1.43;;;9.70;96.40;;;;;;5073608;28;20220;-63
2021/03/14 09:07:39;;;;;;;3.97;1.33;;;9.80;96.70;;;;;;5073636;28;20711;-63
2021/03/14 09:10:10;;;;;;;4.37;1.00;;;10.10;95.70;;;;;;5074030;28;20229;-63
2021/03/14 09:12:36;;;;;;;1.60;0.90;;;10.20;95.00;;;;;;5074035;28;20213;-62
2021/03/14 09:15:05;;;;;;;1.87;1.03;;;10.30;94.70;;;;;;5073760;28;20209;-62
2021/03/14 09:17:37;;;;;;;3.20;1.30;;;10.20;94.40;;;;;;5073589;28;20205;-62
2021/03/14 09:20:04;;;;;;;3.47;1.27;;;9.90;94.90;;;;;;5073643;28;20263;-63
2021/03/14 09:22:34;;;;;;;4.00;1.37;;;9.80;95.00;;;;;;5073802;28;20209;-63
2021/03/14 09:25:02;;;;;;;2.57;0.90;;;9.80;95.20;;;;;;5073275;28;20209;-63
2021/03/14 09:27:30;;;;;;;2.47;1.00;;;9.90;95.40;;;;;;5072679;28;20229;-64
2021/03/14 09:29:58;;;;;;;3.40;1.20;;;9.80;95.40;;;;;;5073468;28;20229;-64
2021/03/14 09:32:35;;;;;;;4.13;1.30;;;9.50;95.30;;;;;;5073954;28;20201;-65
2021/03/14 09:35:11;;;;;;;2.47;1.10;;;9.50;95.80;;;;;;5074265;28;20606;-62
2021/03/14 09:37:38;;;;;;;3.60;1.40;;;9.30;95.90;;;;;;5073868;28;20203;-61
2021/03/14 09:40:27;;;;;;;2.47;1.00;;;9.40;96.20;;;;;;5073368;28;20229;-63
2021/03/14 09:43:04;;;;;;;4.37;1.10;;;9.50;96.00;;;;;;5073130;28;20208;-65
2021/03/14 09:45:31;;;;;;;2.47;1.10;;;9.90;95.90;;;;;;5073287;28;20231;-64
2021/03/14 09:48:06;;;;;;;4.47;1.20;;;10.20;95.00;;;;;;5073085;28;20359;-63
2021/03/14 09:50:36;;;;;;;3.23;1.70;;;10.20;94.50;;;;;;5073058;28;20731;-64
2021/03/14 09:53:04;;;;;;;2.13;1.00;;;10.30;94.40;;;;;;5073146;28;20201;-63
2021/03/14 09:55:32;;;;;;;2.73;1.13;;;10.30;94.20;;;;;;5072976;28;20742;-64
2021/03/14 09:58:00;;;;;;;4.50;1.50;;;10.30;94.40;;;;;;5073100;28;20205;-64
2021/03/14 10:00:29;;;;;;;3.57;1.43;;;10.50;94.10;;;;;;5072773;28;20243;-64
2021/03/14 10:02:59;;;;;;;3.27;1.10;;;10.80;93.50;;;;;;5072771;28;20289;-64
2021/03/14 10:05:25;;;;;;;2.60;1.37;;;11.00;93.70;;;;;;5072463;28;20275;-64
2021/03/14 10:07:53;;;;;;;4.57;1.07;;;11.20;92.80;;;;;;5072430;28;20225;-64
2021/03/14 10:10:20;;;;;;;1.60;0.83;;;11.40;92.90;;;;;;5072724;28;20282;-65
2021/03/14 10:12:48;;;;;;;2.30;1.20;;;11.40;92.00;;;;;;5072701;28;20204;-64
2021/03/14 10:15:17;;;;;;;3.33;1.40;;;11.40;91.70;;;;;;5071897;28;20266;-64
2021/03/14 10:17:43;;;;;;;3.17;1.40;;;11.40;91.20;;;;;;5072682;28;20208;-64
2021/03/14 10:20:12;;;;;;;3.57;2.33;;;11.20;91.30;;;;;;5072902;28;20225;-64
2021/03/14 10:22:38;;;;;;;2.60;1.30;;;10.90;91.80;;;;;;5071200;28;20201;-64
2021/03/14 10:25:07;;;;;;;2.27;1.10;;;10.80;92.20;;;;;;5072238;28;20621;-64
2021/03/14 10:27:33;;;;;;;2.23;1.00;;;10.60;92.80;;;;;;5072179;28;20228;-66
2021/03/14 10:30:03;;;;;;;2.50;0.90;;;10.40;93.10;;;;;;5071886;28;20264;-64
2021/03/14 10:32:31;;;;;;;3.97;1.10;;;10.20;93.00;;;;;;5072049;28;20209;-64
2021/03/14 10:34:59;;;;;;;3.07;1.30;;;10.10;93.50;;;;;;5071938;28;20231;-64
2021/03/14 10:37:27;;;;;;;2.63;1.30;;;10.00;93.70;;;;;;5072127;28;20204;-64
2021/03/14 10:40:06;;;;;;;3.17;1.40;;;10.20;94.20;;;;;;5071577;28;20208;-63
2021/03/14 10:42:35;;;;;;;2.17;0.90;;;10.20;93.10;;;;;;5072049;28;20709;-64
2021/03/14 10:45:06;;;;;;;3.97;1.20;;;10.30;92.30;;;;;;5069143;28;20223;-65
2021/03/14 10:47:33;;;;;;;3.60;1.07;;;10.10;92.30;;;;;;5071206;28;20229;-65
2021/03/14 10:50:16;;;;;;;5.43;1.10;;;9.90;93.90;;;;;;5071303;28;20277;-64
2021/03/14 10:52:42;;;;;;;1.97;1.07;;;9.70;94.40;;;;;;5071368;28;20209;-65
2021/03/14 10:55:30;;;;;;;2.13;0.90;;;9.50;94.50;;;;;;5070904;28;20582;-65
2021/03/14 10:58:11;;;;;;;3.03;1.13;;;9.50;94.20;;;;;;5070864;28;20243;-65
2021/03/14 11:00:42;;;;;;;3.00;1.17;;;9.90;93.90;;;;;;5070830;28;20738;-64
2021/03/14 11:03:13;;;;;;;6.27;1.30;;;10.10;92.10;;;;;;5071441;28;20237;-64
2021/03/14 11:05:41;;;;;;;2.17;0.93;;;10.20;92.10;;;;;;5071918;28;20204;-64
2021/03/14 11:08:08;;;;;;;1.67;1.07;;;10.20;92.10;;;;;;5071259;28;20221;-64
2021/03/14 11:10:35;;;;;;;4.63;1.30;;;10.40;91.90;;;;;;5070681;28;20693;-64
2021/03/14 11:13:14;;;;;;;5.47;1.90;;;10.60;92.10;;;;;;5074180;28;20209;-65
2021/03/14 11:15:42;;;;;;;2.77;0.97;;;11.00;92.10;;;;;;5070647;28;20494;-65
2021/03/14 11:18:20;;;;;;;4.10;1.17;;;11.40;91.60;;;;;;5071361;28;20206;-66
2021/03/14 11:20:46;;;;;;;3.50;1.30;;;11.60;90.50;;;;;;5074192;28;20220;-65
2021/03/14 11:23:12;;;;;;;3.40;1.10;;;11.90;89.50;;;;;;5073122;28;20212;-62
2021/03/14 11:25:39;;;;;;;1.73;0.87;;;12.00;89.20;;;;;;5070980;28;20614;-62
2021/03/14 11:28:09;;;;;;;4.83;1.40;;;12.00;89.40;;;;;;5071126;28;20225;-62
2021/03/14 11:30:36;;;;;;;2.37;0.90;;;12.10;89.40;;;;;;5071000;28;20670;-62
2021/03/14 11:33:04;;;;;;;13.37;7.07;;;12.00;87.50;;;;;;5071429;28;20572;-62
2021/03/14 11:35:31;;;;;;;2.87;1.33;;;12.00;88.60;;;;;;5070991;28;20212;-62
2021/03/14 11:37:57;;;;;;;4.30;1.20;;;12.00;87.50;;;;;;5071207;28;20205;-62
2021/03/14 11:40:24;;;;;;;3.17;1.60;;;12.20;86.70;;;;;;5071313;28;20278;-62
2021/03/14 11:42:50;;;;;;;1.83;1.17;;;12.40;87.80;;;;;;5071019;28;20216;-62
2021/03/14 11:45:17;;;;;;;3.53;1.20;;;12.50;86.00;;;;;;5070722;28;20665;-62
2021/03/14 11:47:44;;;;;;;3.73;1.00;;;12.90;86.50;;;;;;5070548;28;20274;-62
2021/03/14 11:50:12;;;;;;;3.90;1.20;;;13.10;85.60;;;;;;5070388;28;20221;-63
2021/03/14 11:52:38;;;;;;;1.97;1.03;;;13.20;82.30;;;;;;5070990;28;20205;-62
2021/03/14 11:55:06;;;;;;;2.70;1.10;;;13.20;80.40;;;;;;5070710;28;20209;-62
2021/03/14 11:57:32;;;;;;;3.93;1.00;;;13.20;79.60;;;;;;5070843;28;20200;-61
2021/03/14 11:59:59;;;;;;;3.83;1.37;;;12.90;80.50;;;;;;5070510;28;20244;-61
2021/03/14 12:02:25;;;;;;;3.37;1.13;;;12.60;81.30;;;;;;5070715;28;20460;-64
2021/03/14 12:04:51;;;;;;;3.50;0.90;;;12.70;80.40;;;;;;5070543;28;20511;-61
2021/03/14 12:07:18;;;;;;;2.80;1.13;;;12.80;79.60;;;;;;5070489;28;20224;-62
2021/03/14 12:09:45;;;;;;;2.27;0.93;;;12.70;80.00;;;;;;5070689;28;20200;-61
2021/03/14 12:12:11;;;;;;;6.33;1.07;;;12.70;80.50;;;;;;5070926;28;20205;-64
2021/03/14 12:14:40;;;;;;;5.93;1.47;;;12.70;81.80;;;;;;5070509;28;20665;-62
2021/03/14 12:17:06;;;;;;;3.47;1.00;;;12.50;82.20;;;;;;5070556;28;20243;-61
2021/03/14 12:19:32;;;;;;;5.13;1.33;;;12.40;81.60;;;;;;5070707;28;20209;-61
2021/03/14 12:21:58;;;;;;;3.97;1.20;;;12.30;82.30;;;;;;5070801;28;20228;-62
2021/03/14 12:24:25;;;;;;;7.00;1.40;;;12.30;82.80;;;;;;5070944;28;20209;-62
2021/03/14 12:26:52;;;;;;;6.50;1.63;;;12.20;83.00;;;;;;5070625;28;20225;-62
2021/03/14 12:29:18;;;;;;;3.47;1.00;;;12.20;83.70;;;;;;5070865;28;20209;-61
2021/03/14 12:31:44;;;;;;;4.37;1.27;;;12.30;82.30;;;;;;5070362;28;20224;-62
2021/03/14 12:34:10;;;;;;;2.93;1.20;;;12.30;82.30;;;;;;5070574;28;20216;-61
2021/03/14 12:36:36;;;;;;;4.80;1.40;;;12.20;82.20;;;;;;5070922;28;20209;-61
2021/03/14 12:39:03;;;;;;;4.30;2.40;;;12.10;82.90;;;;;;5070928;28;20665;-62
2021/03/14 12:41:30;;;;;;;4.97;1.27;;;11.90;81.70;;;;;;5070734;28;20225;-62
2021/03/14 12:43:56;;;;;;;5.47;1.10;;;11.60;82.90;;;;;;5070623;28;20205;-61
2021/03/14 12:46:23;;;;;;;5.63;1.20;;;11.30;84.30;;;;;;5070884;28;20251;-62
2021/03/14 12:48:49;;;;;;;2.93;1.20;;;11.20;85.00;;;;;;5070266;28;20672;-61
2021/03/14 12:51:15;;;;;;;3.53;1.13;;;11.10;86.30;;;;;;5071042;28;20221;-61
2021/03/14 12:53:41;;;;;;;2.80;0.83;;;11.10;86.90;;;;;;5070638;28;20205;-61
2021/03/14 12:56:07;;;;;;;4.60;0.90;;;10.90;87.40;;;;;;5070729;28;20215;-61
2021/03/14 12:58:35;;;;;;;2.13;0.90;;;10.60;88.10;;;;;;5070449;28;20553;-61
2021/03/14 13:01:02;;;;;;;3.13;0.90;;;10.50;89.70;;;;;;5070402;28;20244;-61